sensor_id;sensor_type;location;lat;lon;timestamp;temperature;humidity
47590;DHT22;33316;52.298;9.056;2023-08-06T00:01:54;16.90;92.70
47590;DHT22;33316;52.298;9.056;2023-08-06T00:04:21;16.90;92.70
47590;DHT22;33316;52.298;9.056;2023-08-06T00:06:48;16.90;92.70
47590;DHT22;33316;52.298;9.056;2023-08-06T00:09:15;16.90;92.70
47590;DHT22;33316;52.298;9.056;2023-08-06T00:11:41;16.90;92.80
47590;DHT22;33316;52.298;9.056;2023-08-06T00:14:10;16.90;92.80
47590;DHT22;33316;52.298;9.056;2023-08-06T00:16:37;16.80;92.90
47590;DHT22;33316;52.298;9.056;2023-08-06T00:19:04;16.80;93.00
47590;DHT22;33316;52.298;9.056;2023-08-06T00:21:31;16.80;93.00
47590;DHT22;33316;52.298;9.056;2023-08-06T00:23:58;16.80;93.00
47590;DHT22;33316;52.298;9.056;2023-08-06T00:26:25;16.80;93.10
47590;DHT22;33316;52.298;9.056;2023-08-06T00:28:52;16.80;93.20
47590;DHT22;33316;52.298;9.056;2023-08-06T00:31:21;16.70;93.20
47590;DHT22;33316;52.298;9.056;2023-08-06T00:33:48;16.70;93.20
47590;DHT22;33316;52.298;9.056;2023-08-06T00:36:14;16.60;93.30
47590;DHT22;33316;52.298;9.056;2023-08-06T00:38:41;16.60;93.40
47590;DHT22;33316;52.298;9.056;2023-08-06T00:41:08;16.60;93.40
47590;DHT22;33316;52.298;9.056;2023-08-06T00:43:36;16.60;93.40
47590;DHT22;33316;52.298;9.056;2023-08-06T00:46:03;16.70;93.40
47590;DHT22;33316;52.298;9.056;2023-08-06T00:48:31;16.70;93.30
47590;DHT22;33316;52.298;9.056;2023-08-06T00:51:01;16.60;93.30
47590;DHT22;33316;52.298;9.056;2023-08-06T00:53:28;16.70;93.30
47590;DHT22;33316;52.298;9.056;2023-08-06T00:55:55;16.70;93.20
47590;DHT22;33316;52.298;9.056;2023-08-06T00:58:22;16.70;93.20
47590;DHT22;33316;52.298;9.056;2023-08-06T01:00:49;16.80;93.20
47590;DHT22;33316;52.298;9.056;2023-08-06T01:03:16;16.80;93.20
47590;DHT22;33316;52.298;9.056;2023-08-06T01:05:44;16.80;93.20
47590;DHT22;33316;52.298;9.056;2023-08-06T01:08:19;16.80;93.20
47590;DHT22;33316;52.298;9.056;2023-08-06T01:11:00;16.80;93.30
47590;DHT22;33316;52.298;9.056;2023-08-06T01:13:33;16.80;93.20
47590;DHT22;33316;52.298;9.056;2023-08-06T01:16:03;16.80;93.20
47590;DHT22;33316;52.298;9.056;2023-08-06T01:18:31;16.80;93.20
47590;DHT22;33316;52.298;9.056;2023-08-06T01:20:59;16.80;93.20
47590;DHT22;33316;52.298;9.056;2023-08-06T01:23:26;16.80;93.20
47590;DHT22;33316;52.298;9.056;2023-08-06T01:25:58;16.80;93.20
47590;DHT22;33316;52.298;9.056;2023-08-06T01:28:48;16.80;93.20
47590;DHT22;33316;52.298;9.056;2023-08-06T01:31:22;16.80;93.20
47590;DHT22;33316;52.298;9.056;2023-08-06T01:33:51;16.80;93.20
47590;DHT22;33316;52.298;9.056;2023-08-06T01:36:21;16.80;93.20
47590;DHT22;33316;52.298;9.056;2023-08-06T01:38:48;16.80;93.20
47590;DHT22;33316;52.298;9.056;2023-08-06T01:41:18;16.80;93.20
47590;DHT22;33316;52.298;9.056;2023-08-06T01:43:44;16.80;93.20
47590;DHT22;33316;52.298;9.056;2023-08-06T01:46:11;16.80;93.20
47590;DHT22;33316;52.298;9.056;2023-08-06T01:48:39;16.70;93.20
47590;DHT22;33316;52.298;9.056;2023-08-06T01:51:06;16.70;93.20
47590;DHT22;33316;52.298;9.056;2023-08-06T01:53:34;16.70;93.20
47590;DHT22;33316;52.298;9.056;2023-08-06T01:56:01;16.70;93.30
47590;DHT22;33316;52.298;9.056;2023-08-06T01:58:28;16.60;93.30
47590;DHT22;33316;52.298;9.056;2023-08-06T02:00:55;16.70;93.30
47590;DHT22;33316;52.298;9.056;2023-08-06T02:03:24;16.60;93.30
47590;DHT22;33316;52.298;9.056;2023-08-06T02:05:51;16.70;93.40
47590;DHT22;33316;52.298;9.056;2023-08-06T02:08:17;16.70;93.30
47590;DHT22;33316;52.298;9.056;2023-08-06T02:10:46;16.70;93.30
47590;DHT22;33316;52.298;9.056;2023-08-06T02:13:13;16.70;93.30
47590;DHT22;33316;52.298;9.056;2023-08-06T02:15:42;16.70;93.40
47590;DHT22;33316;52.298;9.056;2023-08-06T02:18:09;16.60;93.40
47590;DHT22;33316;52.298;9.056;2023-08-06T02:20:36;16.60;93.30
47590;DHT22;33316;52.298;9.056;2023-08-06T02:23:03;16.60;93.40
47590;DHT22;33316;52.298;9.056;2023-08-06T02:25:30;16.60;93.40
47590;DHT22;33316;52.298;9.056;2023-08-06T02:27:59;16.60;93.40
47590;DHT22;33316;52.298;9.056;2023-08-06T02:30:26;16.60;93.40
47590;DHT22;33316;52.298;9.056;2023-08-06T02:32:53;16.60;93.40
47590;DHT22;33316;52.298;9.056;2023-08-06T02:35:20;16.60;93.40
47590;DHT22;33316;52.298;9.056;2023-08-06T02:37:46;16.60;93.50
47590;DHT22;33316;52.298;9.056;2023-08-06T02:40:13;16.60;93.50
47590;DHT22;33316;52.298;9.056;2023-08-06T02:42:40;16.50;93.50
47590;DHT22;33316;52.298;9.056;2023-08-06T02:45:09;16.50;93.60
47590;DHT22;33316;52.298;9.056;2023-08-06T02:47:36;16.50;93.60
47590;DHT22;33316;52.298;9.056;2023-08-06T02:50:04;16.40;93.70
47590;DHT22;33316;52.298;9.056;2023-08-06T02:52:31;16.40;94.10
47590;DHT22;33316;52.298;9.056;2023-08-06T02:54:58;16.40;93.70
47590;DHT22;33316;52.298;9.056;2023-08-06T02:57:26;16.40;93.70
47590;DHT22;33316;52.298;9.056;2023-08-06T02:59:54;16.40;93.80
47590;DHT22;33316;52.298;9.056;2023-08-06T03:02:23;16.40;93.80
47590;DHT22;33316;52.298;9.056;2023-08-06T03:05:08;16.40;93.80
47590;DHT22;33316;52.298;9.056;2023-08-06T03:07:39;16.30;93.80
47590;DHT22;33316;52.298;9.056;2023-08-06T03:10:13;16.30;93.80
47590;DHT22;33316;52.298;9.056;2023-08-06T03:12:42;16.30;93.80
47590;DHT22;33316;52.298;9.056;2023-08-06T03:15:09;16.30;93.80
47590;DHT22;33316;52.298;9.056;2023-08-06T03:17:38;16.30;93.90
47590;DHT22;33316;52.298;9.056;2023-08-06T03:20:07;16.30;93.90
47590;DHT22;33316;52.298;9.056;2023-08-06T03:22:34;16.30;93.80
47590;DHT22;33316;52.298;9.056;2023-08-06T03:25:01;16.30;93.80
47590;DHT22;33316;52.298;9.056;2023-08-06T03:27:28;16.30;93.80
47590;DHT22;33316;52.298;9.056;2023-08-06T03:29:55;16.30;93.70
47590;DHT22;33316;52.298;9.056;2023-08-06T03:32:26;16.30;93.70
47590;DHT22;33316;52.298;9.056;2023-08-06T03:34:55;16.30;93.60
47590;DHT22;33316;52.298;9.056;2023-08-06T03:37:25;16.30;93.60
47590;DHT22;33316;52.298;9.056;2023-08-06T03:39:52;16.30;93.60
47590;DHT22;33316;52.298;9.056;2023-08-06T03:42:19;16.30;93.50
47590;DHT22;33316;52.298;9.056;2023-08-06T03:44:46;16.30;93.50
47590;DHT22;33316;52.298;9.056;2023-08-06T03:47:13;16.20;93.50
47590;DHT22;33316;52.298;9.056;2023-08-06T03:49:40;16.20;93.50
47590;DHT22;33316;52.298;9.056;2023-08-06T03:52:09;16.20;93.50
47590;DHT22;33316;52.298;9.056;2023-08-06T03:54:36;16.20;93.50
47590;DHT22;33316;52.298;9.056;2023-08-06T03:57:05;16.20;93.50
47590;DHT22;33316;52.298;9.056;2023-08-06T03:59:32;16.10;93.50
47590;DHT22;33316;52.298;9.056;2023-08-06T04:01:59;16.10;93.40
47590;DHT22;33316;52.298;9.056;2023-08-06T04:04:31;16.10;93.50
47590;DHT22;33316;52.298;9.056;2023-08-06T04:06:58;16.10;93.50
47590;DHT22;33316;52.298;9.056;2023-08-06T04:09:28;16.10;93.50
47590;DHT22;33316;52.298;9.056;2023-08-06T04:11:55;16.10;93.50
47590;DHT22;33316;52.298;9.056;2023-08-06T04:14:24;16.10;93.50
47590;DHT22;33316;52.298;9.056;2023-08-06T04:16:51;16.00;93.50
47590;DHT22;33316;52.298;9.056;2023-08-06T04:19:18;16.00;93.50
47590;DHT22;33316;52.298;9.056;2023-08-06T04:21:44;16.00;93.60
47590;DHT22;33316;52.298;9.056;2023-08-06T04:24:11;15.90;93.50
47590;DHT22;33316;52.298;9.056;2023-08-06T04:26:40;16.00;93.60
47590;DHT22;33316;52.298;9.056;2023-08-06T04:29:07;16.00;93.60
47590;DHT22;33316;52.298;9.056;2023-08-06T04:31:34;15.90;93.50
47590;DHT22;33316;52.298;9.056;2023-08-06T04:34:01;15.90;93.50
47590;DHT22;33316;52.298;9.056;2023-08-06T04:36:28;15.90;93.60
47590;DHT22;33316;52.298;9.056;2023-08-06T04:38:55;15.90;93.60
47590;DHT22;33316;52.298;9.056;2023-08-06T04:41:22;15.90;93.60
47590;DHT22;33316;52.298;9.056;2023-08-06T04:43:50;15.90;93.60
47590;DHT22;33316;52.298;9.056;2023-08-06T04:46:17;15.90;93.60
47590;DHT22;33316;52.298;9.056;2023-08-06T04:48:44;15.90;93.50
47590;DHT22;33316;52.298;9.056;2023-08-06T04:51:10;15.90;93.50
47590;DHT22;33316;52.298;9.056;2023-08-06T04:53:37;15.90;93.50
47590;DHT22;33316;52.298;9.056;2023-08-06T04:56:04;15.90;93.50
47590;DHT22;33316;52.298;9.056;2023-08-06T04:58:31;15.90;93.50
47590;DHT22;33316;52.298;9.056;2023-08-06T05:00:59;15.90;93.50
47590;DHT22;33316;52.298;9.056;2023-08-06T05:03:26;15.90;93.50
47590;DHT22;33316;52.298;9.056;2023-08-06T05:05:53;15.90;93.50
47590;DHT22;33316;52.298;9.056;2023-08-06T05:08:19;15.90;93.40
47590;DHT22;33316;52.298;9.056;2023-08-06T05:10:46;15.90;93.40
47590;DHT22;33316;52.298;9.056;2023-08-06T05:13:13;15.90;93.40
47590;DHT22;33316;52.298;9.056;2023-08-06T05:15:41;15.80;93.40
47590;DHT22;33316;52.298;9.056;2023-08-06T05:18:12;15.90;93.50
47590;DHT22;33316;52.298;9.056;2023-08-06T05:20:40;15.90;93.50
47590;DHT22;33316;52.298;9.056;2023-08-06T05:23:07;15.90;93.50
47590;DHT22;33316;52.298;9.056;2023-08-06T05:25:34;15.90;93.50
47590;DHT22;33316;52.298;9.056;2023-08-06T05:28:02;16.00;93.50
47590;DHT22;33316;52.298;9.056;2023-08-06T05:30:29;15.90;93.50
47590;DHT22;33316;52.298;9.056;2023-08-06T05:32:56;15.90;93.50
47590;DHT22;33316;52.298;9.056;2023-08-06T05:35:24;16.00;93.50
47590;DHT22;33316;52.298;9.056;2023-08-06T05:37:51;16.00;93.60
47590;DHT22;33316;52.298;9.056;2023-08-06T05:40:18;16.10;93.60
47590;DHT22;33316;52.298;9.056;2023-08-06T05:42:44;16.30;93.60
47590;DHT22;33316;52.298;9.056;2023-08-06T05:45:11;16.40;93.50
47590;DHT22;33316;52.298;9.056;2023-08-06T05:47:38;16.50;93.50
47590;DHT22;33316;52.298;9.056;2023-08-06T05:50:06;16.80;93.40
47590;DHT22;33316;52.298;9.056;2023-08-06T05:52:36;17.00;93.20
47590;DHT22;33316;52.298;9.056;2023-08-06T05:55:03;17.20;93.00
47590;DHT22;33316;52.298;9.056;2023-08-06T05:57:30;17.40;92.80
47590;DHT22;33316;52.298;9.056;2023-08-06T05:59:56;17.60;92.70
47590;DHT22;33316;52.298;9.056;2023-08-06T06:02:24;17.70;92.50
47590;DHT22;33316;52.298;9.056;2023-08-06T06:04:51;17.70;92.30
47590;DHT22;33316;52.298;9.056;2023-08-06T06:07:18;17.70;92.30
47590;DHT22;33316;52.298;9.056;2023-08-06T06:09:46;17.60;92.30
47590;DHT22;33316;52.298;9.056;2023-08-06T06:12:13;17.70;92.50
47590;DHT22;33316;52.298;9.056;2023-08-06T06:14:40;17.60;92.50
47590;DHT22;33316;52.298;9.056;2023-08-06T06:17:07;17.60;92.50
47590;DHT22;33316;52.298;9.056;2023-08-06T06:19:34;17.50;92.50
47590;DHT22;33316;52.298;9.056;2023-08-06T06:22:01;17.50;92.60
47590;DHT22;33316;52.298;9.056;2023-08-06T06:24:27;17.50;92.60
47590;DHT22;33316;52.298;9.056;2023-08-06T06:26:55;17.50;92.70
47590;DHT22;33316;52.298;9.056;2023-08-06T06:29:22;17.60;92.70
47590;DHT22;33316;52.298;9.056;2023-08-06T06:31:49;17.60;92.80
47590;DHT22;33316;52.298;9.056;2023-08-06T06:34:16;17.60;92.70
47590;DHT22;33316;52.298;9.056;2023-08-06T06:36:43;17.70;92.70
47590;DHT22;33316;52.298;9.056;2023-08-06T06:39:10;17.70;92.70
47590;DHT22;33316;52.298;9.056;2023-08-06T06:41:36;17.80;92.60
47590;DHT22;33316;52.298;9.056;2023-08-06T06:44:13;17.80;92.60
47590;DHT22;33316;52.298;9.056;2023-08-06T06:46:40;17.90;92.60
47590;DHT22;33316;52.298;9.056;2023-08-06T06:49:07;18.00;92.70
47590;DHT22;33316;52.298;9.056;2023-08-06T06:51:34;18.20;92.60
47590;DHT22;33316;52.298;9.056;2023-08-06T06:54:01;18.40;92.50
47590;DHT22;33316;52.298;9.056;2023-08-06T06:56:28;18.60;92.30
47590;DHT22;33316;52.298;9.056;2023-08-06T06:58:54;18.80;92.10
47590;DHT22;33316;52.298;9.056;2023-08-06T07:01:23;19.00;91.90
47590;DHT22;33316;52.298;9.056;2023-08-06T07:03:49;19.10;91.70
47590;DHT22;33316;52.298;9.056;2023-08-06T07:06:17;19.20;91.40
47590;DHT22;33316;52.298;9.056;2023-08-06T07:08:44;19.30;91.00
47590;DHT22;33316;52.298;9.056;2023-08-06T07:11:11;19.50;90.90
47590;DHT22;33316;52.298;9.056;2023-08-06T07:13:38;19.70;90.70
47590;DHT22;33316;52.298;9.056;2023-08-06T07:16:05;19.80;90.40
47590;DHT22;33316;52.298;9.056;2023-08-06T07:18:33;19.90;90.20
47590;DHT22;33316;52.298;9.056;2023-08-06T07:21:00;20.00;89.90
47590;DHT22;33316;52.298;9.056;2023-08-06T07:23:27;20.00;89.40
47590;DHT22;33316;52.298;9.056;2023-08-06T07:25:54;20.00;88.90
47590;DHT22;33316;52.298;9.056;2023-08-06T07:28:20;20.10;88.70
47590;DHT22;33316;52.298;9.056;2023-08-06T07:30:48;20.20;87.90
47590;DHT22;33316;52.298;9.056;2023-08-06T07:33:15;20.20;87.50
47590;DHT22;33316;52.298;9.056;2023-08-06T07:35:43;20.30;87.30
47590;DHT22;33316;52.298;9.056;2023-08-06T07:38:11;20.40;87.20
47590;DHT22;33316;52.298;9.056;2023-08-06T07:40:39;20.50;86.90
47590;DHT22;33316;52.298;9.056;2023-08-06T07:43:05;20.60;86.60
47590;DHT22;33316;52.298;9.056;2023-08-06T07:45:33;20.70;86.50
47590;DHT22;33316;52.298;9.056;2023-08-06T07:48:01;20.80;86.50
47590;DHT22;33316;52.298;9.056;2023-08-06T07:50:28;20.80;86.00
47590;DHT22;33316;52.298;9.056;2023-08-06T07:52:56;20.90;85.80
47590;DHT22;33316;52.298;9.056;2023-08-06T07:55:23;20.90;85.00
47590;DHT22;33316;52.298;9.056;2023-08-06T07:57:50;20.80;85.00
47590;DHT22;33316;52.298;9.056;2023-08-06T08:00:17;20.80;85.10
47590;DHT22;33316;52.298;9.056;2023-08-06T08:02:44;20.80;84.80
47590;DHT22;33316;52.298;9.056;2023-08-06T08:05:11;20.80;85.00
47590;DHT22;33316;52.298;9.056;2023-08-06T08:07:38;20.90;85.40
47590;DHT22;33316;52.298;9.056;2023-08-06T08:10:07;21.10;85.30
47590;DHT22;33316;52.298;9.056;2023-08-06T08:12:34;21.10;84.60
47590;DHT22;33316;52.298;9.056;2023-08-06T08:15:01;21.20;84.90
47590;DHT22;33316;52.298;9.056;2023-08-06T08:17:28;21.30;84.30
47590;DHT22;33316;52.298;9.056;2023-08-06T08:19:55;21.30;84.20
47590;DHT22;33316;52.298;9.056;2023-08-06T08:22:22;21.30;83.90
47590;DHT22;33316;52.298;9.056;2023-08-06T08:24:49;21.40;84.30
47590;DHT22;33316;52.298;9.056;2023-08-06T08:27:17;21.50;84.50
47590;DHT22;33316;52.298;9.056;2023-08-06T08:29:44;21.60;83.70
47590;DHT22;33316;52.298;9.056;2023-08-06T08:32:11;21.60;83.00
47590;DHT22;33316;52.298;9.056;2023-08-06T08:34:38;21.60;82.50
47590;DHT22;33316;52.298;9.056;2023-08-06T08:37:04;21.60;81.90
47590;DHT22;33316;52.298;9.056;2023-08-06T08:39:32;21.70;81.80
47590;DHT22;33316;52.298;9.056;2023-08-06T08:41:59;21.60;81.10
47590;DHT22;33316;52.298;9.056;2023-08-06T08:44:30;21.60;81.00
47590;DHT22;33316;52.298;9.056;2023-08-06T08:46:58;21.60;81.10
47590;DHT22;33316;52.298;9.056;2023-08-06T08:49:26;21.60;81.20
47590;DHT22;33316;52.298;9.056;2023-08-06T08:51:54;21.60;81.40
47590;DHT22;33316;52.298;9.056;2023-08-06T08:54:23;21.60;81.40
47590;DHT22;33316;52.298;9.056;2023-08-06T08:56:50;21.60;81.20
47590;DHT22;33316;52.298;9.056;2023-08-06T08:59:17;21.60;80.70
47590;DHT22;33316;52.298;9.056;2023-08-06T09:01:46;21.50;80.20
47590;DHT22;33316;52.298;9.056;2023-08-06T09:04:17;21.50;80.40
47590;DHT22;33316;52.298;9.056;2023-08-06T09:06:48;21.50;81.30
47590;DHT22;33316;52.298;9.056;2023-08-06T09:09:19;21.50;81.50
47590;DHT22;33316;52.298;9.056;2023-08-06T09:11:48;21.60;81.60
47590;DHT22;33316;52.298;9.056;2023-08-06T09:14:16;21.60;81.90
47590;DHT22;33316;52.298;9.056;2023-08-06T09:16:48;21.70;82.20
47590;DHT22;33316;52.298;9.056;2023-08-06T09:19:15;21.70;82.40
47590;DHT22;33316;52.298;9.056;2023-08-06T09:21:43;21.80;82.60
47590;DHT22;33316;52.298;9.056;2023-08-06T09:24:12;21.80;82.60
47590;DHT22;33316;52.298;9.056;2023-08-06T09:26:40;21.90;82.60
47590;DHT22;33316;52.298;9.056;2023-08-06T09:29:08;21.90;82.30
47590;DHT22;33316;52.298;9.056;2023-08-06T09:31:40;22.00;82.30
47590;DHT22;33316;52.298;9.056;2023-08-06T09:34:12;22.00;81.50
47590;DHT22;33316;52.298;9.056;2023-08-06T09:36:41;22.00;81.40
47590;DHT22;33316;52.298;9.056;2023-08-06T09:39:13;22.10;81.10
47590;DHT22;33316;52.298;9.056;2023-08-06T09:41:41;22.10;81.00
47590;DHT22;33316;52.298;9.056;2023-08-06T09:44:15;22.10;81.00
47590;DHT22;33316;52.298;9.056;2023-08-06T09:46:47;22.10;80.90
47590;DHT22;33316;52.298;9.056;2023-08-06T09:49:19;22.20;81.00
47590;DHT22;33316;52.298;9.056;2023-08-06T09:51:48;22.20;80.60
47590;DHT22;33316;52.298;9.056;2023-08-06T09:54:17;22.20;80.40
47590;DHT22;33316;52.298;9.056;2023-08-06T09:56:44;22.20;80.40
47590;DHT22;33316;52.298;9.056;2023-08-06T09:59:12;22.20;80.60
47590;DHT22;33316;52.298;9.056;2023-08-06T10:01:39;22.20;80.80
47590;DHT22;33316;52.298;9.056;2023-08-06T10:04:07;22.20;81.00
47590;DHT22;33316;52.298;9.056;2023-08-06T10:06:36;22.30;81.10
47590;DHT22;33316;52.298;9.056;2023-08-06T10:09:03;22.30;80.70
47590;DHT22;33316;52.298;9.056;2023-08-06T10:11:30;22.20;80.40
47590;DHT22;33316;52.298;9.056;2023-08-06T10:14:02;22.20;80.80
47590;DHT22;33316;52.298;9.056;2023-08-06T10:16:31;22.20;80.50
47590;DHT22;33316;52.298;9.056;2023-08-06T10:18:58;22.20;80.60
47590;DHT22;33316;52.298;9.056;2023-08-06T10:21:25;22.20;80.50
47590;DHT22;33316;52.298;9.056;2023-08-06T10:23:55;22.20;80.60
47590;DHT22;33316;52.298;9.056;2023-08-06T10:26:25;22.20;80.60
47590;DHT22;33316;52.298;9.056;2023-08-06T10:28:52;22.20;80.60
47590;DHT22;33316;52.298;9.056;2023-08-06T10:31:19;22.20;80.60
47590;DHT22;33316;52.298;9.056;2023-08-06T10:33:47;22.20;80.60
47590;DHT22;33316;52.298;9.056;2023-08-06T10:36:14;22.20;80.60
47590;DHT22;33316;52.298;9.056;2023-08-06T10:38:46;22.20;80.80
47590;DHT22;33316;52.298;9.056;2023-08-06T10:41:22;22.30;80.90
47590;DHT22;33316;52.298;9.056;2023-08-06T10:43:50;22.20;80.90
47590;DHT22;33316;52.298;9.056;2023-08-06T10:46:26;22.20;80.90
47590;DHT22;33316;52.298;9.056;2023-08-06T10:48:53;22.20;80.80
47590;DHT22;33316;52.298;9.056;2023-08-06T10:51:20;22.20;80.80
47590;DHT22;33316;52.298;9.056;2023-08-06T10:53:48;22.20;80.90
47590;DHT22;33316;52.298;9.056;2023-08-06T10:56:17;22.10;80.60
47590;DHT22;33316;52.298;9.056;2023-08-06T10:58:46;22.10;80.60
47590;DHT22;33316;52.298;9.056;2023-08-06T11:01:14;22.10;80.40
47590;DHT22;33316;52.298;9.056;2023-08-06T11:03:41;22.00;80.50
47590;DHT22;33316;52.298;9.056;2023-08-06T11:06:09;22.00;80.60
47590;DHT22;33316;52.298;9.056;2023-08-06T11:08:37;22.00;80.80
47590;DHT22;33316;52.298;9.056;2023-08-06T11:11:08;22.00;81.10
47590;DHT22;33316;52.298;9.056;2023-08-06T11:13:37;21.90;81.90
47590;DHT22;33316;52.298;9.056;2023-08-06T11:16:04;21.90;82.40
47590;DHT22;33316;52.298;9.056;2023-08-06T11:18:31;21.90;82.60
47590;DHT22;33316;52.298;9.056;2023-08-06T11:20:59;21.80;82.20
47590;DHT22;33316;52.298;9.056;2023-08-06T11:23:26;21.60;81.20
47590;DHT22;33316;52.298;9.056;2023-08-06T11:25:53;21.50;81.80
47590;DHT22;33316;52.298;9.056;2023-08-06T11:28:20;21.30;82.70
47590;DHT22;33316;52.298;9.056;2023-08-06T11:30:49;21.20;83.20
47590;DHT22;33316;52.298;9.056;2023-08-06T11:33:20;21.10;83.50
47590;DHT22;33316;52.298;9.056;2023-08-06T11:35:55;21.00;84.40
47590;DHT22;33316;52.298;9.056;2023-08-06T11:38:21;21.00;85.40
47590;DHT22;33316;52.298;9.056;2023-08-06T11:40:50;21.00;85.70
47590;DHT22;33316;52.298;9.056;2023-08-06T11:43:18;21.00;85.90
47590;DHT22;33316;52.298;9.056;2023-08-06T11:45:46;21.00;86.30
47590;DHT22;33316;52.298;9.056;2023-08-06T11:48:15;21.10;86.70
47590;DHT22;33316;52.298;9.056;2023-08-06T11:50:42;21.10;87.10
47590;DHT22;33316;52.298;9.056;2023-08-06T11:53:12;21.10;87.60
47590;DHT22;33316;52.298;9.056;2023-08-06T11:55:39;21.20;88.00
47590;DHT22;33316;52.298;9.056;2023-08-06T11:58:11;21.20;87.70
47590;DHT22;33316;52.298;9.056;2023-08-06T12:00:38;21.20;87.40
47590;DHT22;33316;52.298;9.056;2023-08-06T12:03:05;21.20;87.40
47590;DHT22;33316;52.298;9.056;2023-08-06T12:05:34;21.20;87.30
47590;DHT22;33316;52.298;9.056;2023-08-06T12:08:02;21.20;87.70
47590;DHT22;33316;52.298;9.056;2023-08-06T12:10:30;21.10;87.70
47590;DHT22;33316;52.298;9.056;2023-08-06T12:12:57;21.10;88.00
47590;DHT22;33316;52.298;9.056;2023-08-06T12:15:24;21.10;87.80
47590;DHT22;33316;52.298;9.056;2023-08-06T12:17:51;21.10;88.00
47590;DHT22;33316;52.298;9.056;2023-08-06T12:20:19;21.10;88.10
47590;DHT22;33316;52.298;9.056;2023-08-06T12:22:47;21.20;88.50
47590;DHT22;33316;52.298;9.056;2023-08-06T12:25:15;21.20;88.80
47590;DHT22;33316;52.298;9.056;2023-08-06T12:27:43;21.30;88.60
47590;DHT22;33316;52.298;9.056;2023-08-06T12:30:12;21.30;88.30
47590;DHT22;33316;52.298;9.056;2023-08-06T12:32:39;21.30;88.20
47590;DHT22;33316;52.298;9.056;2023-08-06T12:35:07;21.30;88.30
47590;DHT22;33316;52.298;9.056;2023-08-06T12:37:34;21.30;88.30
47590;DHT22;33316;52.298;9.056;2023-08-06T12:40:04;21.40;88.00
47590;DHT22;33316;52.298;9.056;2023-08-06T12:42:34;21.40;87.60
47590;DHT22;33316;52.298;9.056;2023-08-06T12:45:01;21.40;87.20
47590;DHT22;33316;52.298;9.056;2023-08-06T12:47:28;21.40;87.00
47590;DHT22;33316;52.298;9.056;2023-08-06T12:49:55;21.40;87.00
47590;DHT22;33316;52.298;9.056;2023-08-06T12:52:21;21.40;86.40
47590;DHT22;33316;52.298;9.056;2023-08-06T12:54:48;21.40;86.40
47590;DHT22;33316;52.298;9.056;2023-08-06T12:57:17;21.40;85.00
47590;DHT22;33316;52.298;9.056;2023-08-06T12:59:44;21.40;84.80
47590;DHT22;33316;52.298;9.056;2023-08-06T13:02:10;21.40;84.70
47590;DHT22;33316;52.298;9.056;2023-08-06T13:04:40;21.40;84.80
47590;DHT22;33316;52.298;9.056;2023-08-06T13:07:08;21.40;85.50
47590;DHT22;33316;52.298;9.056;2023-08-06T13:09:35;21.50;84.20
47590;DHT22;33316;52.298;9.056;2023-08-06T13:12:02;21.40;83.50
47590;DHT22;33316;52.298;9.056;2023-08-06T13:14:32;21.40;83.50
47590;DHT22;33316;52.298;9.056;2023-08-06T13:16:59;21.40;83.30
47590;DHT22;33316;52.298;9.056;2023-08-06T13:19:27;21.40;83.30
47590;DHT22;33316;52.298;9.056;2023-08-06T13:22:02;21.50;82.80
47590;DHT22;33316;52.298;9.056;2023-08-06T13:24:31;21.50;82.70
47590;DHT22;33316;52.298;9.056;2023-08-06T13:27:00;21.50;82.40
47590;DHT22;33316;52.298;9.056;2023-08-06T13:29:27;21.50;83.00
47590;DHT22;33316;52.298;9.056;2023-08-06T13:31:55;21.60;83.10
47590;DHT22;33316;52.298;9.056;2023-08-06T13:34:22;21.60;83.20
47590;DHT22;33316;52.298;9.056;2023-08-06T13:36:49;21.70;83.30
47590;DHT22;33316;52.298;9.056;2023-08-06T13:39:16;21.70;83.50
47590;DHT22;33316;52.298;9.056;2023-08-06T13:41:43;21.70;83.20
47590;DHT22;33316;52.298;9.056;2023-08-06T13:44:10;21.80;83.10
47590;DHT22;33316;52.298;9.056;2023-08-06T13:46:40;21.80;83.00
47590;DHT22;33316;52.298;9.056;2023-08-06T13:49:08;21.80;83.30
47590;DHT22;33316;52.298;9.056;2023-08-06T13:51:35;21.80;82.40
47590;DHT22;33316;52.298;9.056;2023-08-06T13:54:02;21.80;82.70
47590;DHT22;33316;52.298;9.056;2023-08-06T13:56:29;21.80;83.10
47590;DHT22;33316;52.298;9.056;2023-08-06T13:58:56;21.80;83.90
47590;DHT22;33316;52.298;9.056;2023-08-06T14:01:23;21.80;84.40
47590;DHT22;33316;52.298;9.056;2023-08-06T14:03:49;21.80;84.90
47590;DHT22;33316;52.298;9.056;2023-08-06T14:06:18;21.80;85.00
47590;DHT22;33316;52.298;9.056;2023-08-06T14:08:46;21.80;82.80
47590;DHT22;33316;52.298;9.056;2023-08-06T14:11:13;21.70;81.30
47590;DHT22;33316;52.298;9.056;2023-08-06T14:13:40;21.60;80.70
47590;DHT22;33316;52.298;9.056;2023-08-06T14:16:06;21.60;80.40
47590;DHT22;33316;52.298;9.056;2023-08-06T14:18:33;21.50;80.00
47590;DHT22;33316;52.298;9.056;2023-08-06T14:21:03;21.50;80.30
47590;DHT22;33316;52.298;9.056;2023-08-06T14:23:31;21.50;80.40
47590;DHT22;33316;52.298;9.056;2023-08-06T14:25:58;21.50;80.60
47590;DHT22;33316;52.298;9.056;2023-08-06T14:28:25;21.50;81.10
47590;DHT22;33316;52.298;9.056;2023-08-06T14:30:53;21.50;80.60
47590;DHT22;33316;52.298;9.056;2023-08-06T14:33:21;21.50;79.90
47590;DHT22;33316;52.298;9.056;2023-08-06T14:35:48;21.50;79.40
47590;DHT22;33316;52.298;9.056;2023-08-06T14:38:15;21.50;79.90
47590;DHT22;33316;52.298;9.056;2023-08-06T14:40:45;21.50;78.70
47590;DHT22;33316;52.298;9.056;2023-08-06T14:43:12;21.40;78.60
47590;DHT22;33316;52.298;9.056;2023-08-06T14:45:39;21.50;78.60
47590;DHT22;33316;52.298;9.056;2023-08-06T14:48:06;21.50;79.50
47590;DHT22;33316;52.298;9.056;2023-08-06T14:50:33;21.50;79.80
47590;DHT22;33316;52.298;9.056;2023-08-06T14:53:00;21.60;79.50
47590;DHT22;33316;52.298;9.056;2023-08-06T14:55:28;21.60;78.70
47590;DHT22;33316;52.298;9.056;2023-08-06T14:57:56;21.60;78.30
47590;DHT22;33316;52.298;9.056;2023-08-06T15:00:23;21.60;77.60
47590;DHT22;33316;52.298;9.056;2023-08-06T15:02:51;21.50;77.50
47590;DHT22;33316;52.298;9.056;2023-08-06T15:05:18;21.50;77.10
47590;DHT22;33316;52.298;9.056;2023-08-06T15:07:45;21.60;77.60
47590;DHT22;33316;52.298;9.056;2023-08-06T15:10:14;21.60;77.50
47590;DHT22;33316;52.298;9.056;2023-08-06T15:12:41;21.60;77.40
47590;DHT22;33316;52.298;9.056;2023-08-06T15:15:11;21.60;77.80
47590;DHT22;33316;52.298;9.056;2023-08-06T15:17:41;21.60;78.00
47590;DHT22;33316;52.298;9.056;2023-08-06T15:20:09;21.60;78.20
47590;DHT22;33316;52.298;9.056;2023-08-06T15:22:38;21.70;78.40
47590;DHT22;33316;52.298;9.056;2023-08-06T15:25:05;21.70;79.20
47590;DHT22;33316;52.298;9.056;2023-08-06T15:27:32;21.70;78.60
47590;DHT22;33316;52.298;9.056;2023-08-06T15:30:00;21.70;78.40
47590;DHT22;33316;52.298;9.056;2023-08-06T15:32:31;21.70;78.00
47590;DHT22;33316;52.298;9.056;2023-08-06T15:38:48;21.60;78.10